sensor_id;sensor_type;location;lat;lon;timestamp;P1;durP1;ratioP1;P2;durP2;ratioP2
72209;SDS011;60113;48.762;12.302;2024-02-21T00:01:34;17.85;;;4.45;;
72209;SDS011;60113;48.762;12.302;2024-02-21T00:04:00;14.75;;;4.25;;
72209;SDS011;60113;48.762;12.302;2024-02-21T00:06:25;9.77;;;3.63;;
72209;SDS011;60113;48.762;12.302;2024-02-21T00:08:51;17.17;;;4.20;;
72209;SDS011;60113;48.762;12.302;2024-02-21T00:11:17;9.85;;;3.85;;
72209;SDS011;60113;48.762;12.302;2024-02-21T00:13:42;17.02;;;4.07;;
72209;SDS011;60113;48.762;12.302;2024-02-21T00:16:08;17.65;;;4.25;;
72209;SDS011;60113;48.762;12.302;2024-02-21T00:18:35;17.38;;;3.85;;
72209;SDS011;60113;48.762;12.302;2024-02-21T00:21:01;13.35;;;4.80;;
72209;SDS011;60113;48.762;12.302;2024-02-21T00:23:28;11.77;;;4.05;;
72209;SDS011;60113;48.762;12.302;2024-02-21T00:25:54;12.95;;;3.95;;
72209;SDS011;60113;48.762;12.302;2024-02-21T00:28:19;13.75;;;4.00;;
72209;SDS011;60113;48.762;12.302;2024-02-21T00:30:45;13.98;;;3.80;;
72209;SDS011;60113;48.762;12.302;2024-02-21T00:33:13;11.68;;;3.50;;
72209;SDS011;60113;48.762;12.302;2024-02-21T00:35:38;14.40;;;3.90;;
72209;SDS011;60113;48.762;12.302;2024-02-21T00:38:07;12.70;;;3.90;;
72209;SDS011;60113;48.762;12.302;2024-02-21T00:40:32;13.85;;;4.07;;
72209;SDS011;60113;48.762;12.302;2024-02-21T00:42:57;11.05;;;3.60;;
72209;SDS011;60113;48.762;12.302;2024-02-21T00:45:23;14.60;;;3.90;;
72209;SDS011;60113;48.762;12.302;2024-02-21T00:47:49;10.20;;;3.33;;
72209;SDS011;60113;48.762;12.302;2024-02-21T00:50:14;11.50;;;3.80;;
72209;SDS011;60113;48.762;12.302;2024-02-21T00:52:40;14.32;;;3.97;;
72209;SDS011;60113;48.762;12.302;2024-02-21T00:55:05;16.52;;;4.45;;
72209;SDS011;60113;48.762;12.302;2024-02-21T00:57:31;12.88;;;4.47;;
72209;SDS011;60113;48.762;12.302;2024-02-21T00:59:57;11.38;;;3.47;;
72209;SDS011;60113;48.762;12.302;2024-02-21T01:02:23;21.02;;;4.70;;
72209;SDS011;60113;48.762;12.302;2024-02-21T01:04:48;13.40;;;4.30;;
72209;SDS011;60113;48.762;12.302;2024-02-21T01:07:14;11.90;;;4.03;;
72209;SDS011;60113;48.762;12.302;2024-02-21T01:09:40;16.40;;;4.35;;
72209;SDS011;60113;48.762;12.302;2024-02-21T01:12:06;14.20;;;4.57;;
72209;SDS011;60113;48.762;12.302;2024-02-21T01:14:31;13.93;;;4.13;;
72209;SDS011;60113;48.762;12.302;2024-02-21T01:16:57;17.23;;;4.28;;
72209;SDS011;60113;48.762;12.302;2024-02-21T01:19:22;22.58;;;4.53;;
72209;SDS011;60113;48.762;12.302;2024-02-21T01:21:47;18.23;;;4.50;;
72209;SDS011;60113;48.762;12.302;2024-02-21T01:24:13;15.20;;;4.68;;
72209;SDS011;60113;48.762;12.302;2024-02-21T01:26:39;19.15;;;4.78;;
72209;SDS011;60113;48.762;12.302;2024-02-21T01:29:05;10.95;;;4.13;;
72209;SDS011;60113;48.762;12.302;2024-02-21T01:31:30;17.10;;;4.30;;
72209;SDS011;60113;48.762;12.302;2024-02-21T01:33:56;20.38;;;4.95;;
72209;SDS011;60113;48.762;12.302;2024-02-21T01:36:21;16.05;;;4.60;;
72209;SDS011;60113;48.762;12.302;2024-02-21T01:38:47;13.43;;;4.40;;
72209;SDS011;60113;48.762;12.302;2024-02-21T01:41:12;17.45;;;4.38;;
72209;SDS011;60113;48.762;12.302;2024-02-21T01:43:37;15.18;;;4.10;;
72209;SDS011;60113;48.762;12.302;2024-02-21T01:46:03;20.20;;;4.38;;
72209;SDS011;60113;48.762;12.302;2024-02-21T01:48:28;14.05;;;4.15;;
72209;SDS011;60113;48.762;12.302;2024-02-21T01:50:54;18.80;;;4.10;;
72209;SDS011;60113;48.762;12.302;2024-02-21T01:53:23;18.60;;;4.57;;
72209;SDS011;60113;48.762;12.302;2024-02-21T01:55:52;14.88;;;4.60;;
72209;SDS011;60113;48.762;12.302;2024-02-21T01:58:18;15.75;;;4.90;;
72209;SDS011;60113;48.762;12.302;2024-02-21T02:00:46;20.30;;;5.25;;
72209;SDS011;60113;48.762;12.302;2024-02-21T02:03:13;13.15;;;3.90;;
72209;SDS011;60113;48.762;12.302;2024-02-21T02:05:45;20.25;;;4.90;;
72209;SDS011;60113;48.762;12.302;2024-02-21T02:08:21;15.70;;;3.80;;
72209;SDS011;60113;48.762;12.302;2024-02-21T02:10:47;13.50;;;4.10;;
72209;SDS011;60113;48.762;12.302;2024-02-21T02:13:14;21.15;;;4.90;;
72209;SDS011;60113;48.762;12.302;2024-02-21T02:18:09;10.48;;;3.90;;
72209;SDS011;60113;48.762;12.302;2024-02-21T02:20:35;12.95;;;3.80;;
72209;SDS011;60113;48.762;12.302;2024-02-21T02:23:06;10.30;;;3.13;;
72209;SDS011;60113;48.762;12.302;2024-02-21T02:25:33;8.95;;;3.33;;
72209;SDS011;60113;48.762;12.302;2024-02-21T02:27:58;11.82;;;3.30;;
72209;SDS011;60113;48.762;12.302;2024-02-21T02:30:24;17.50;;;3.78;;
72209;SDS011;60113;48.762;12.302;2024-02-21T02:32:49;13.70;;;3.78;;
72209;SDS011;60113;48.762;12.302;2024-02-21T02:35:14;19.65;;;4.15;;
72209;SDS011;60113;48.762;12.302;2024-02-21T02:37:47;11.32;;;3.45;;
72209;SDS011;60113;48.762;12.302;2024-02-21T02:40:13;20.08;;;7.57;;
72209;SDS011;60113;48.762;12.302;2024-02-21T02:42:38;21.30;;;8.68;;
72209;SDS011;60113;48.762;12.302;2024-02-21T02:45:04;13.73;;;5.22;;
72209;SDS011;60113;48.762;12.302;2024-02-21T02:47:30;13.50;;;4.70;;
72209;SDS011;60113;48.762;12.302;2024-02-21T02:49:55;11.32;;;3.53;;
72209;SDS011;60113;48.762;12.302;2024-02-21T02:52:20;12.55;;;3.70;;
72209;SDS011;60113;48.762;12.302;2024-02-21T02:54:46;13.95;;;3.92;;
72209;SDS011;60113;48.762;12.302;2024-02-21T02:57:17;13.00;;;3.90;;
72209;SDS011;60113;48.762;12.302;2024-02-21T02:59:47;14.23;;;3.75;;
72209;SDS011;60113;48.762;12.302;2024-02-21T03:02:14;12.57;;;3.80;;
72209;SDS011;60113;48.762;12.302;2024-02-21T03:04:39;8.55;;;3.40;;
72209;SDS011;60113;48.762;12.302;2024-02-21T03:07:05;14.27;;;3.63;;
72209;SDS011;60113;48.762;12.302;2024-02-21T03:09:30;12.68;;;3.38;;
72209;SDS011;60113;48.762;12.302;2024-02-21T03:11:56;13.07;;;3.65;;
72209;SDS011;60113;48.762;12.302;2024-02-21T03:14:27;13.90;;;3.67;;
72209;SDS011;60113;48.762;12.302;2024-02-21T03:16:57;14.60;;;3.53;;
72209;SDS011;60113;48.762;12.302;2024-02-21T03:19:23;13.63;;;3.70;;
72209;SDS011;60113;48.762;12.302;2024-02-21T03:21:49;13.55;;;3.85;;
72209;SDS011;60113;48.762;12.302;2024-02-21T03:24:15;12.52;;;3.47;;
72209;SDS011;60113;48.762;12.302;2024-02-21T03:26:44;8.45;;;2.63;;
72209;SDS011;60113;48.762;12.302;2024-02-21T03:29:09;12.55;;;2.97;;
72209;SDS011;60113;48.762;12.302;2024-02-21T03:31:36;11.18;;;3.35;;
72209;SDS011;60113;48.762;12.302;2024-02-21T03:34:02;13.10;;;3.28;;
72209;SDS011;60113;48.762;12.302;2024-02-21T03:36:27;10.10;;;3.30;;
72209;SDS011;60113;48.762;12.302;2024-02-21T03:38:54;8.65;;;2.45;;
72209;SDS011;60113;48.762;12.302;2024-02-21T03:41:20;8.50;;;2.70;;
72209;SDS011;60113;48.762;12.302;2024-02-21T03:43:46;12.40;;;3.42;;
72209;SDS011;60113;48.762;12.302;2024-02-21T03:46:11;10.45;;;2.95;;
72209;SDS011;60113;48.762;12.302;2024-02-21T03:48:37;11.85;;;3.70;;
72209;SDS011;60113;48.762;12.302;2024-02-21T03:51:02;12.60;;;3.28;;
72209;SDS011;60113;48.762;12.302;2024-02-21T03:53:28;12.85;;;3.60;;
72209;SDS011;60113;48.762;12.302;2024-02-21T03:55:54;14.30;;;3.58;;
72209;SDS011;60113;48.762;12.302;2024-02-21T03:58:19;18.00;;;4.35;;
72209;SDS011;60113;48.762;12.302;2024-02-21T04:00:45;15.52;;;3.33;;
72209;SDS011;60113;48.762;12.302;2024-02-21T04:03:11;18.95;;;4.30;;
72209;SDS011;60113;48.762;12.302;2024-02-21T04:05:36;12.45;;;4.13;;
72209;SDS011;60113;48.762;12.302;2024-02-21T04:08:05;8.32;;;3.60;;
72209;SDS011;60113;48.762;12.302;2024-02-21T04:10:31;12.10;;;3.90;;
72209;SDS011;60113;48.762;12.302;2024-02-21T04:12:56;13.82;;;4.28;;
72209;SDS011;60113;48.762;12.302;2024-02-21T04:15:22;13.82;;;3.80;;
72209;SDS011;60113;48.762;12.302;2024-02-21T04:17:48;10.27;;;4.28;;
72209;SDS011;60113;48.762;12.302;2024-02-21T04:20:14;12.98;;;4.07;;
72209;SDS011;60113;48.762;12.302;2024-02-21T04:22:44;15.57;;;4.47;;
72209;SDS011;60113;48.762;12.302;2024-02-21T04:25:11;12.23;;;3.58;;
72209;SDS011;60113;48.762;12.302;2024-02-21T04:27:39;14.23;;;4.22;;
72209;SDS011;60113;48.762;12.302;2024-02-21T04:30:05;14.38;;;3.60;;
72209;SDS011;60113;48.762;12.302;2024-02-21T04:32:32;13.75;;;3.72;;
72209;SDS011;60113;48.762;12.302;2024-02-21T04:34:57;8.43;;;3.20;;
72209;SDS011;60113;48.762;12.302;2024-02-21T04:37:23;15.82;;;3.70;;
72209;SDS011;60113;48.762;12.302;2024-02-21T04:39:49;11.57;;;4.05;;
72209;SDS011;60113;48.762;12.302;2024-02-21T04:42:15;19.10;;;3.85;;
72209;SDS011;60113;48.762;12.302;2024-02-21T04:44:40;13.23;;;3.75;;
72209;SDS011;60113;48.762;12.302;2024-02-21T04:47:06;12.45;;;2.78;;
72209;SDS011;60113;48.762;12.302;2024-02-21T04:49:32;11.07;;;3.35;;
72209;SDS011;60113;48.762;12.302;2024-02-21T04:51:58;12.15;;;2.67;;
72209;SDS011;60113;48.762;12.302;2024-02-21T04:54:24;13.32;;;3.30;;
72209;SDS011;60113;48.762;12.302;2024-02-21T04:56:50;9.98;;;2.90;;
72209;SDS011;60113;48.762;12.302;2024-02-21T04:59:16;10.70;;;3.20;;
72209;SDS011;60113;48.762;12.302;2024-02-21T05:01:42;10.63;;;2.78;;
72209;SDS011;60113;48.762;12.302;2024-02-21T05:04:07;9.07;;;2.70;;
72209;SDS011;60113;48.762;12.302;2024-02-21T05:06:39;12.75;;;3.15;;
72209;SDS011;60113;48.762;12.302;2024-02-21T05:11:32;12.85;;;3.40;;
72209;SDS011;60113;48.762;12.302;2024-02-21T05:13:57;13.00;;;3.17;;
72209;SDS011;60113;48.762;12.302;2024-02-21T05:16:22;10.70;;;2.70;;
72209;SDS011;60113;48.762;12.302;2024-02-21T05:18:48;9.82;;;3.25;;
72209;SDS011;60113;48.762;12.302;2024-02-21T05:21:14;11.77;;;3.15;;
72209;SDS011;60113;48.762;12.302;2024-02-21T05:23:40;11.07;;;2.95;;
72209;SDS011;60113;48.762;12.302;2024-02-21T05:26:06;9.68;;;3.13;;
72209;SDS011;60113;48.762;12.302;2024-02-21T05:28:32;15.30;;;6.15;;
72209;SDS011;60113;48.762;12.302;2024-02-21T05:30:57;32.83;;;10.27;;
72209;SDS011;60113;48.762;12.302;2024-02-21T05:33:23;66.97;;;23.55;;
72209;SDS011;60113;48.762;12.302;2024-02-21T05:35:49;19.92;;;7.15;;
72209;SDS011;60113;48.762;12.302;2024-02-21T05:38:15;14.20;;;4.40;;
72209;SDS011;60113;48.762;12.302;2024-02-21T05:40:41;9.73;;;3.70;;
72209;SDS011;60113;48.762;12.302;2024-02-21T05:43:07;13.70;;;3.50;;
72209;SDS011;60113;48.762;12.302;2024-02-21T05:45:33;8.57;;;2.80;;
72209;SDS011;60113;48.762;12.302;2024-02-21T05:47:58;7.65;;;2.53;;
72209;SDS011;60113;48.762;12.302;2024-02-21T05:50:24;7.00;;;2.90;;
72209;SDS011;60113;48.762;12.302;2024-02-21T05:52:52;11.07;;;3.28;;
72209;SDS011;60113;48.762;12.302;2024-02-21T05:55:19;12.73;;;4.85;;
72209;SDS011;60113;48.762;12.302;2024-02-21T05:57:45;17.00;;;4.60;;
72209;SDS011;60113;48.762;12.302;2024-02-21T06:00:10;12.18;;;4.53;;
72209;SDS011;60113;48.762;12.302;2024-02-21T06:02:36;9.50;;;3.03;;
72209;SDS011;60113;48.762;12.302;2024-02-21T06:05:01;26.30;;;4.75;;
72209;SDS011;60113;48.762;12.302;2024-02-21T06:07:27;15.90;;;5.55;;
72209;SDS011;60113;48.762;12.302;2024-02-21T06:09:52;18.17;;;5.93;;
72209;SDS011;60113;48.762;12.302;2024-02-21T06:12:18;10.43;;;3.70;;
72209;SDS011;60113;48.762;12.302;2024-02-21T06:14:43;15.85;;;4.55;;
72209;SDS011;60113;48.762;12.302;2024-02-21T06:17:09;13.02;;;4.70;;
72209;SDS011;60113;48.762;12.302;2024-02-21T06:19:35;12.82;;;5.50;;
72209;SDS011;60113;48.762;12.302;2024-02-21T06:22:00;17.48;;;8.18;;
72209;SDS011;60113;48.762;12.302;2024-02-21T06:24:25;24.83;;;11.95;;
72209;SDS011;60113;48.762;12.302;2024-02-21T06:26:51;12.52;;;7.07;;
72209;SDS011;60113;48.762;12.302;2024-02-21T06:29:17;17.77;;;5.97;;
72209;SDS011;60113;48.762;12.302;2024-02-21T06:31:42;8.88;;;3.80;;
72209;SDS011;60113;48.762;12.302;2024-02-21T06:34:08;11.18;;;4.13;;
72209;SDS011;60113;48.762;12.302;2024-02-21T06:36:33;14.60;;;4.07;;
72209;SDS011;60113;48.762;12.302;2024-02-21T06:38:59;9.57;;;3.40;;
72209;SDS011;60113;48.762;12.302;2024-02-21T06:41:24;14.07;;;3.90;;
72209;SDS011;60113;48.762;12.302;2024-02-21T06:43:50;9.35;;;4.38;;
72209;SDS011;60113;48.762;12.302;2024-02-21T06:46:25;13.88;;;4.43;;
72209;SDS011;60113;48.762;12.302;2024-02-21T06:48:52;11.50;;;4.50;;
72209;SDS011;60113;48.762;12.302;2024-02-21T06:51:17;15.13;;;5.32;;
72209;SDS011;60113;48.762;12.302;2024-02-21T06:53:43;13.90;;;5.55;;
72209;SDS011;60113;48.762;12.302;2024-02-21T06:56:09;15.25;;;4.75;;
72209;SDS011;60113;48.762;12.302;2024-02-21T06:58:35;16.30;;;5.70;;
72209;SDS011;60113;48.762;12.302;2024-02-21T07:01:01;18.80;;;5.47;;
72209;SDS011;60113;48.762;12.302;2024-02-21T07:03:27;18.85;;;5.35;;
72209;SDS011;60113;48.762;12.302;2024-02-21T07:05:53;13.88;;;4.00;;
72209;SDS011;60113;48.762;12.302;2024-02-21T07:08:18;13.13;;;3.95;;
72209;SDS011;60113;48.762;12.302;2024-02-21T07:10:43;10.57;;;3.80;;
72209;SDS011;60113;48.762;12.302;2024-02-21T07:13:09;19.92;;;6.18;;
72209;SDS011;60113;48.762;12.302;2024-02-21T07:15:35;14.93;;;5.07;;
72209;SDS011;60113;48.762;12.302;2024-02-21T07:18:01;8.65;;;3.53;;
72209;SDS011;60113;48.762;12.302;2024-02-21T07:20:27;17.63;;;8.95;;
72209;SDS011;60113;48.762;12.302;2024-02-21T07:22:52;12.02;;;4.22;;
72209;SDS011;60113;48.762;12.302;2024-02-21T07:25:18;12.20;;;4.57;;
72209;SDS011;60113;48.762;12.302;2024-02-21T07:27:44;13.63;;;3.80;;
72209;SDS011;60113;48.762;12.302;2024-02-21T07:30:09;12.10;;;4.28;;
72209;SDS011;60113;48.762;12.302;2024-02-21T07:32:35;13.45;;;5.38;;
72209;SDS011;60113;48.762;12.302;2024-02-21T07:35:00;13.45;;;3.30;;
72209;SDS011;60113;48.762;12.302;2024-02-21T07:37:26;12.32;;;3.40;;
72209;SDS011;60113;48.762;12.302;2024-02-21T07:39:52;32.60;;;15.48;;
72209;SDS011;60113;48.762;12.302;2024-02-21T07:42:17;41.85;;;17.23;;
72209;SDS011;60113;48.762;12.302;2024-02-21T07:44:42;27.02;;;14.07;;
72209;SDS011;60113;48.762;12.302;2024-02-21T07:47:08;22.75;;;11.10;;
72209;SDS011;60113;48.762;12.302;2024-02-21T07:49:40;26.25;;;14.02;;
72209;SDS011;60113;48.762;12.302;2024-02-21T07:52:06;15.75;;;5.15;;
72209;SDS011;60113;48.762;12.302;2024-02-21T07:54:31;6.85;;;2.80;;
72209;SDS011;60113;48.762;12.302;2024-02-21T07:56:56;9.13;;;2.60;;
72209;SDS011;60113;48.762;12.302;2024-02-21T07:59:22;13.82;;;5.40;;
72209;SDS011;60113;48.762;12.302;2024-02-21T08:01:47;10.43;;;3.20;;
72209;SDS011;60113;48.762;12.302;2024-02-21T08:04:13;8.88;;;2.83;;
72209;SDS011;60113;48.762;12.302;2024-02-21T08:06:39;8.48;;;2.97;;
72209;SDS011;60113;48.762;12.302;2024-02-21T08:09:05;11.57;;;3.75;;
72209;SDS011;60113;48.762;12.302;2024-02-21T08:11:30;7.55;;;3.38;;
72209;SDS011;60113;48.762;12.302;2024-02-21T08:13:55;7.35;;;2.55;;
72209;SDS011;60113;48.762;12.302;2024-02-21T08:16:21;10.75;;;4.70;;
72209;SDS011;60113;48.762;12.302;2024-02-21T08:18:47;10.77;;;2.92;;
72209;SDS011;60113;48.762;12.302;2024-02-21T08:21:13;6.70;;;2.70;;
72209;SDS011;60113;48.762;12.302;2024-02-21T08:23:38;10.20;;;3.40;;
72209;SDS011;60113;48.762;12.302;2024-02-21T08:26:04;8.90;;;2.38;;
72209;SDS011;60113;48.762;12.302;2024-02-21T08:28:30;3.78;;;1.83;;
72209;SDS011;60113;48.762;12.302;2024-02-21T08:30:56;14.02;;;3.83;;
72209;SDS011;60113;48.762;12.302;2024-02-21T08:33:21;8.20;;;3.00;;
72209;SDS011;60113;48.762;12.302;2024-02-21T08:35:50;7.65;;;2.20;;
72209;SDS011;60113;48.762;12.302;2024-02-21T08:38:16;11.63;;;3.00;;
72209;SDS011;60113;48.762;12.302;2024-02-21T08:40:42;13.43;;;6.95;;
72209;SDS011;60113;48.762;12.302;2024-02-21T08:43:07;6.75;;;2.95;;
72209;SDS011;60113;48.762;12.302;2024-02-21T08:45:33;9.55;;;1.90;;
72209;SDS011;60113;48.762;12.302;2024-02-21T08:47:58;10.43;;;2.10;;
72209;SDS011;60113;48.762;12.302;2024-02-21T08:50:23;14.60;;;2.17;;
72209;SDS011;60113;48.762;12.302;2024-02-21T08:52:49;9.43;;;2.28;;
72209;SDS011;60113;48.762;12.302;2024-02-21T08:55:14;7.32;;;1.85;;
72209;SDS011;60113;48.762;12.302;2024-02-21T08:57:40;5.75;;;2.05;;
72209;SDS011;60113;48.762;12.302;2024-02-21T09:00:06;7.70;;;2.25;;
72209;SDS011;60113;48.762;12.302;2024-02-21T09:02:35;8.20;;;2.78;;
72209;SDS011;60113;48.762;12.302;2024-02-21T09:05:05;8.20;;;2.45;;
72209;SDS011;60113;48.762;12.302;2024-02-21T09:07:31;9.13;;;3.30;;
72209;SDS011;60113;48.762;12.302;2024-02-21T09:09:56;6.95;;;2.08;;
72209;SDS011;60113;48.762;12.302;2024-02-21T09:12:22;10.10;;;3.10;;
72209;SDS011;60113;48.762;12.302;2024-02-21T09:14:48;9.15;;;3.33;;
72209;SDS011;60113;48.762;12.302;2024-02-21T09:17:15;10.18;;;4.03;;
72209;SDS011;60113;48.762;12.302;2024-02-21T09:19:42;9.30;;;2.28;;
72209;SDS011;60113;48.762;12.302;2024-02-21T09:22:08;9.93;;;2.80;;
72209;SDS011;60113;48.762;12.302;2024-02-21T09:24:34;8.45;;;2.38;;
72209;SDS011;60113;48.762;12.302;2024-02-21T09:26:59;5.95;;;2.03;;
72209;SDS011;60113;48.762;12.302;2024-02-21T09:29:25;8.52;;;3.10;;
72209;SDS011;60113;48.762;12.302;2024-02-21T09:31:51;18.30;;;3.85;;
72209;SDS011;60113;48.762;12.302;2024-02-21T09:34:17;8.35;;;3.05;;
72209;SDS011;60113;48.762;12.302;2024-02-21T09:36:44;8.88;;;4.03;;
72209;SDS011;60113;48.762;12.302;2024-02-21T09:39:09;5.55;;;1.90;;
72209;SDS011;60113;48.762;12.302;2024-02-21T09:41:39;6.72;;;2.65;;
72209;SDS011;60113;48.762;12.302;2024-02-21T09:44:10;7.03;;;2.88;;
72209;SDS011;60113;48.762;12.302;2024-02-21T09:46:42;8.82;;;2.20;;
72209;SDS011;60113;48.762;12.302;2024-02-21T09:49:32;7.47;;;2.28;;
72209;SDS011;60113;48.762;12.302;2024-02-21T09:52:02;8.80;;;2.28;;
72209;SDS011;60113;48.762;12.302;2024-02-21T09:54:29;5.05;;;1.77;;
72209;SDS011;60113;48.762;12.302;2024-02-21T09:56:56;13.10;;;2.53;;
72209;SDS011;60113;48.762;12.302;2024-02-21T09:59:22;8.05;;;2.40;;
72209;SDS011;60113;48.762;12.302;2024-02-21T10:01:49;7.45;;;2.10;;
72209;SDS011;60113;48.762;12.302;2024-02-21T10:04:16;5.15;;;1.75;;
72209;SDS011;60113;48.762;12.302;2024-02-21T10:06:41;6.43;;;1.98;;
72209;SDS011;60113;48.762;12.302;2024-02-21T10:09:07;9.13;;;2.08;;
72209;SDS011;60113;48.762;12.302;2024-02-21T10:11:33;8.80;;;2.22;;
72209;SDS011;60113;48.762;12.302;2024-02-21T10:14:07;5.00;;;1.83;;
72209;SDS011;60113;48.762;12.302;2024-02-21T10:16:33;7.57;;;1.92;;
72209;SDS011;60113;48.762;12.302;2024-02-21T10:18:59;7.57;;;1.98;;
72209;SDS011;60113;48.762;12.302;2024-02-21T10:21:24;9.20;;;2.40;;
72209;SDS011;60113;48.762;12.302;2024-02-21T10:23:50;7.72;;;1.77;;
72209;SDS011;60113;48.762;12.302;2024-02-21T10:26:17;9.38;;;1.70;;
72209;SDS011;60113;48.762;12.302;2024-02-21T10:28:44;7.47;;;2.30;;
72209;SDS011;60113;48.762;12.302;2024-02-21T10:31:20;9.93;;;1.98;;
72209;SDS011;60113;48.762;12.302;2024-02-21T10:33:53;9.88;;;3.25;;
72209;SDS011;60113;48.762;12.302;2024-02-21T10:36:22;5.05;;;2.00;;
72209;SDS011;60113;48.762;12.302;2024-02-21T10:38:49;7.70;;;3.15;;
72209;SDS011;60113;48.762;12.302;2024-02-21T10:41:15;7.55;;;2.58;;
72209;SDS011;60113;48.762;12.302;2024-02-21T10:43:41;7.88;;;2.20;;
72209;SDS011;60113;48.762;12.302;2024-02-21T10:46:11;8.10;;;2.60;;
72209;SDS011;60113;48.762;12.302;2024-02-21T10:48:43;5.97;;;1.80;;
72209;SDS011;60113;48.762;12.302;2024-02-21T10:51:16;5.32;;;1.80;;
72209;SDS011;60113;48.762;12.302;2024-02-21T10:56:33;6.13;;;1.80;;
72209;SDS011;60113;48.762;12.302;2024-02-21T10:59:04;5.20;;;2.05;;
72209;SDS011;60113;48.762;12.302;2024-02-21T11:01:31;6.45;;;2.10;;
72209;SDS011;60113;48.762;12.302;2024-02-21T11:03:58;9.98;;;2.08;;
72209;SDS011;60113;48.762;12.302;2024-02-21T11:06:27;5.68;;;1.90;;
72209;SDS011;60113;48.762;12.302;2024-02-21T11:09:28;9.63;;;2.08;;
72209;SDS011;60113;48.762;12.302;2024-02-21T11:11:54;7.40;;;2.15;;
72209;SDS011;60113;48.762;12.302;2024-02-21T11:14:25;6.80;;;1.77;;
72209;SDS011;60113;48.762;12.302;2024-02-21T11:16:52;11.15;;;3.00;;
72209;SDS011;60113;48.762;12.302;2024-02-21T11:19:21;6.28;;;2.03;;
72209;SDS011;60113;48.762;12.302;2024-02-21T11:21:47;11.02;;;2.55;;
72209;SDS011;60113;48.762;12.302;2024-02-21T11:24:13;6.35;;;2.20;;
72209;SDS011;60113;48.762;12.302;2024-02-21T11:26:39;11.60;;;2.30;;
72209;SDS011;60113;48.762;12.302;2024-02-21T11:29:08;7.57;;;2.15;;
72209;SDS011;60113;48.762;12.302;2024-02-21T11:31:43;7.60;;;1.80;;
72209;SDS011;60113;48.762;12.302;2024-02-21T11:34:11;6.50;;;2.03;;
72209;SDS011;60113;48.762;12.302;2024-02-21T11:36:51;5.05;;;1.90;;
72209;SDS011;60113;48.762;12.302;2024-02-21T11:39:21;4.85;;;1.40;;
72209;SDS011;60113;48.762;12.302;2024-02-21T11:42:04;7.10;;;1.85;;
72209;SDS011;60113;48.762;12.302;2024-02-21T11:44:31;6.90;;;1.90;;
72209;SDS011;60113;48.762;12.302;2024-02-21T11:46:57;7.55;;;1.67;;
72209;SDS011;60113;48.762;12.302;2024-02-21T11:49:27;6.28;;;2.30;;
72209;SDS011;60113;48.762;12.302;2024-02-21T11:52:03;5.18;;;2.20;;
72209;SDS011;60113;48.762;12.302;2024-02-21T11:54:32;6.22;;;1.73;;
72209;SDS011;60113;48.762;12.302;2024-02-21T11:56:58;5.05;;;1.50;;
72209;SDS011;60113;48.762;12.302;2024-02-21T11:59:25;4.60;;;1.45;;
72209;SDS011;60113;48.762;12.302;2024-02-21T12:01:50;4.15;;;1.33;;
72209;SDS011;60113;48.762;12.302;2024-02-21T12:04:19;7.15;;;1.88;;
72209;SDS011;60113;48.762;12.302;2024-02-21T12:06:45;3.75;;;1.58;;
72209;SDS011;60113;48.762;12.302;2024-02-21T12:09:14;6.00;;;1.48;;
72209;SDS011;60113;48.762;12.302;2024-02-21T12:14:10;3.67;;;1.60;;
72209;SDS011;60113;48.762;12.302;2024-02-21T12:16:36;4.95;;;1.58;;
72209;SDS011;60113;48.762;12.302;2024-02-21T12:19:02;2.70;;;1.27;;
72209;SDS011;60113;48.762;12.302;2024-02-21T12:21:31;5.35;;;1.58;;
72209;SDS011;60113;48.762;12.302;2024-02-21T12:24:23;5.40;;;1.55;;
72209;SDS011;60113;48.762;12.302;2024-02-21T12:26:49;4.22;;;1.58;;
72209;SDS011;60113;48.762;12.302;2024-02-21T12:29:15;4.68;;;1.80;;
72209;SDS011;60113;48.762;12.302;2024-02-21T12:31:40;3.92;;;1.27;;
72209;SDS011;60113;48.762;12.302;2024-02-21T12:34:06;6.22;;;1.65;;
72209;SDS011;60113;48.762;12.302;2024-02-21T12:36:35;3.22;;;1.20;;
72209;SDS011;60113;48.762;12.302;2024-02-21T12:39:01;4.88;;;1.88;;
72209;SDS011;60113;48.762;12.302;2024-02-21T12:41:28;6.28;;;1.30;;
72209;SDS011;60113;48.762;12.302;2024-02-21T12:43:55;4.43;;;1.33;;
72209;SDS011;60113;48.762;12.302;2024-02-21T12:46:21;4.22;;;1.20;;
72209;SDS011;60113;48.762;12.302;2024-02-21T12:48:47;6.68;;;1.52;;
72209;SDS011;60113;48.762;12.302;2024-02-21T12:51:13;8.15;;;1.55;;
72209;SDS011;60113;48.762;12.302;2024-02-21T12:53:39;3.67;;;1.38;;
72209;SDS011;60113;48.762;12.302;2024-02-21T12:56:04;8.77;;;1.80;;
72209;SDS011;60113;48.762;12.302;2024-02-21T12:58:31;11.35;;;3.95;;
72209;SDS011;60113;48.762;12.302;2024-02-21T13:00:57;7.65;;;2.03;;
72209;SDS011;60113;48.762;12.302;2024-02-21T13:03:22;5.57;;;1.85;;
72209;SDS011;60113;48.762;12.302;2024-02-21T13:05:48;5.80;;;2.35;;
72209;SDS011;60113;48.762;12.302;2024-02-21T13:08:15;5.13;;;1.50;;
72209;SDS011;60113;48.762;12.302;2024-02-21T13:10:40;6.32;;;1.90;;
72209;SDS011;60113;48.762;12.302;2024-02-21T13:13:06;3.95;;;1.33;;
72209;SDS011;60113;48.762;12.302;2024-02-21T13:15:31;4.93;;;1.40;;
72209;SDS011;60113;48.762;12.302;2024-02-21T13:17:57;5.38;;;2.15;;
72209;SDS011;60113;48.762;12.302;2024-02-21T13:20:23;7.22;;;3.13;;
72209;SDS011;60113;48.762;12.302;2024-02-21T13:22:50;7.00;;;1.90;;
72209;SDS011;60113;48.762;12.302;2024-02-21T13:25:16;9.25;;;2.75;;
72209;SDS011;60113;48.762;12.302;2024-02-21T13:27:44;5.10;;;1.42;;
72209;SDS011;60113;48.762;12.302;2024-02-21T13:30:10;7.88;;;1.70;;
72209;SDS011;60113;48.762;12.302;2024-02-21T13:32:36;5.75;;;1.20;;
72209;SDS011;60113;48.762;12.302;2024-02-21T13:35:02;3.03;;;1.15;;
72209;SDS011;60113;48.762;12.302;2024-02-21T13:37:28;4.90;;;1.58;;
72209;SDS011;60113;48.762;12.302;2024-02-21T13:39:54;5.85;;;1.40;;
72209;SDS011;60113;48.762;12.302;2024-02-21T13:42:19;2.97;;;1.13;;
72209;SDS011;60113;48.762;12.302;2024-02-21T13:44:46;4.72;;;1.50;;
72209;SDS011;60113;48.762;12.302;2024-02-21T13:47:14;5.78;;;1.45;;
72209;SDS011;60113;48.762;12.302;2024-02-21T13:49:40;7.35;;;2.05;;
72209;SDS011;60113;48.762;12.302;2024-02-21T13:52:06;3.90;;;1.65;;
72209;SDS011;60113;48.762;12.302;2024-02-21T13:54:31;6.57;;;1.30;;
72209;SDS011;60113;48.762;12.302;2024-02-21T13:56:57;5.72;;;2.65;;
72209;SDS011;60113;48.762;12.302;2024-02-21T13:59:22;5.13;;;1.20;;
72209;SDS011;60113;48.762;12.302;2024-02-21T14:01:48;28.70;;;14.00;;
72209;SDS011;60113;48.762;12.302;2024-02-21T14:04:15;7.55;;;2.50;;
72209;SDS011;60113;48.762;12.302;2024-02-21T14:06:40;6.38;;;1.27;;
72209;SDS011;60113;48.762;12.302;2024-02-21T14:09:09;7.75;;;1.95;;
72209;SDS011;60113;48.762;12.302;2024-02-21T14:11:36;3.30;;;1.10;;
72209;SDS011;60113;48.762;12.302;2024-02-21T14:14:03;6.18;;;1.33;;
72209;SDS011;60113;48.762;12.302;2024-02-21T14:16:29;6.60;;;1.38;;
72209;SDS011;60113;48.762;12.302;2024-02-21T14:18:55;3.13;;;1.38;;
72209;SDS011;60113;48.762;12.302;2024-02-21T14:21:20;4.00;;;1.23;;
72209;SDS011;60113;48.762;12.302;2024-02-21T14:23:46;3.08;;;0.98;;
72209;SDS011;60113;48.762;12.302;2024-02-21T14:26:12;3.55;;;1.00;;
72209;SDS011;60113;48.762;12.302;2024-02-21T14:28:39;6.70;;;1.73;;
72209;SDS011;60113;48.762;12.302;2024-02-21T14:31:05;4.25;;;1.52;;
72209;SDS011;60113;48.762;12.302;2024-02-21T14:33:34;3.63;;;1.17;;
72209;SDS011;60113;48.762;12.302;2024-02-21T14:36:00;4.55;;;1.52;;